Time;durP1;ratioP1;P1;durP2;ratioP2;P2;SDS_P1;SDS_P2;PMS_P1;PMS_P2;Temp;Humidity;BMP_temperature;BMP_pressure;BME280_temperature;BME280_humidity;BME280_pressure;Samples;Min_cycle;Max_cycle;Signal;HPM_P1;HPM_P2
2023/06/07 00:01:55;;;;;;;4.85;3.80;;;;;;;;;;4942069;28;20155;-47
2023/06/07 00:04:21;;;;;;;10.63;3.97;;;;;;;;;;4944051;28;20031;-48
2023/06/07 00:06:47;;;;;;;5.25;4.20;;;;;;;;;;4945942;28;20052;-49
2023/06/07 00:09:12;;;;;;;4.60;3.97;;;;;;;;;;4946393;28;20855;-47
2023/06/07 00:11:38;;;;;;;5.13;3.95;;;;;;;;;;4945027;28;20055;-52
2023/06/07 00:14:03;;;;;;;4.60;3.70;;;;;;;;;;4945959;28;20481;-52
2023/06/07 00:16:29;;;;;;;4.60;3.80;;;;;;;;;;4944008;28;20047;-48
2023/06/07 00:18:55;;;;;;;4.70;4.05;;;;;;;;;;4944735;28;20039;-50
2023/06/07 00:21:22;;;;;;;6.63;4.35;;;;;;;;;;4941039;28;20039;-45
2023/06/07 00:23:48;;;;;;;4.85;4.43;;;;;;;;;;4950185;28;20038;-52
2023/06/07 00:26:13;;;;;;;5.05;4.55;;;;;;;;;;4945458;28;20039;-50
2023/06/07 00:28:38;;;;;;;6.75;4.38;;;;;;;;;;4948274;28;20155;-53
2023/06/07 00:31:04;;;;;;;5.50;4.80;;;;;;;;;;4941651;28;20496;-51
2023/06/07 00:33:30;;;;;;;8.05;4.72;;;;;;;;;;4946511;28;20137;-49
2023/06/07 00:35:55;;;;;;;5.22;4.72;;;;;;;;;;4943598;28;20035;-49
2023/06/07 00:38:23;;;;;;;6.28;4.43;;;;;;;;;;4945774;28;20053;-49
2023/06/07 00:40:48;;;;;;;7.85;4.78;;;;;;;;;;4945556;28;20031;-46
2023/06/07 00:43:14;;;;;;;7.13;5.13;;;;;;;;;;4945406;28;20043;-48
2023/06/07 00:45:39;;;;;;;8.82;5.07;;;;;;;;;;4945694;28;20126;-50
2023/06/07 00:48:04;;;;;;;6.95;4.95;;;;;;;;;;4947402;28;20039;-50
2023/06/07 00:50:30;;;;;;;7.82;4.60;;;;;;;;;;4945884;28;20087;-51
2023/06/07 00:52:56;;;;;;;5.35;4.85;;;;;;;;;;4945594;28;20044;-51
2023/06/07 00:55:21;;;;;;;7.85;4.70;;;;;;;;;;4942325;28;20028;-52
2023/06/07 00:57:47;;;;;;;8.05;5.75;;;;;;;;;;4944234;28;20032;-52
2023/06/07 01:00:13;;;;;;;8.25;5.55;;;;;;;;;;4943892;28;20039;-48
2023/06/07 01:02:46;;;;;;;9.60;5.55;;;;;;;;;;4942917;28;20039;-51
2023/06/07 01:05:12;;;;;;;8.10;5.45;;;;;;;;;;4942638;28;20507;-49
2023/06/07 01:07:38;;;;;;;7.68;5.55;;;;;;;;;;4945799;28;20447;-47
2023/06/07 01:10:05;;;;;;;7.95;5.65;;;;;;;;;;4943078;28;20090;-50
2023/06/07 01:12:34;;;;;;;8.10;5.80;;;;;;;;;;4946535;28;20047;-47
2023/06/07 01:15:01;;;;;;;6.93;5.55;;;;;;;;;;4947290;28;20090;-45
2023/06/07 01:17:28;;;;;;;8.43;5.82;;;;;;;;;;4945050;28;20051;-49
2023/06/07 01:19:57;;;;;;;6.15;5.63;;;;;;;;;;4941255;28;20031;-48
2023/06/07 01:22:27;;;;;;;12.00;5.78;;;;;;;;;;4942058;28;20054;-49
2023/06/07 01:24:56;;;;;;;6.10;5.50;;;;;;;;;;4944092;28;20035;-47
2023/06/07 01:27:27;;;;;;;8.50;5.70;;;;;;;;;;4942689;28;20050;-48
2023/06/07 01:29:55;;;;;;;6.32;5.75;;;;;;;;;;4942677;28;20381;-52
2023/06/07 01:32:22;;;;;;;7.63;6.15;;;;;;;;;;4943265;28;20556;-46
2023/06/07 01:34:49;;;;;;;6.53;5.32;;;;;;;;;;4943936;28;20067;-52
2023/06/07 01:37:14;;;;;;;6.85;5.78;;;;;;;;;;4945966;28;20043;-47
2023/06/07 01:39:41;;;;;;;7.55;5.65;;;;;;;;;;4937704;28;20109;-53
2023/06/07 01:42:09;;;;;;;6.45;5.63;;;;;;;;;;4944961;28;20050;-53
2023/06/07 01:44:37;;;;;;;6.03;5.43;;;;;;;;;;4946735;28;20032;-49
2023/06/07 01:47:03;;;;;;;6.60;5.95;;;;;;;;;;4945071;28;20043;-52
2023/06/07 01:49:29;;;;;;;8.25;5.45;;;;;;;;;;4945715;28;20037;-53
2023/06/07 01:51:54;;;;;;;8.27;6.18;;;;;;;;;;4945128;28;20116;-48
2023/06/07 01:54:19;;;;;;;6.93;5.75;;;;;;;;;;4945889;28;20058;-53
2023/06/07 01:56:48;;;;;;;7.38;5.90;;;;;;;;;;4946402;28;20280;-45
2023/06/07 01:59:42;;;;;;;11.82;6.07;;;;;;;;;;4941765;28;20042;-47
2023/06/07 02:02:09;;;;;;;6.55;5.60;;;;;;;;;;4924215;28;20446;-48
2023/06/07 02:04:39;;;;;;;12.23;6.10;;;;;;;;;;4946623;28;20031;-46
2023/06/07 02:07:09;;;;;;;8.70;5.95;;;;;;;;;;4946962;28;20063;-48
2023/06/07 02:09:38;;;;;;;6.45;5.40;;;;;;;;;;4941294;28;20086;-46
2023/06/07 02:12:06;;;;;;;7.70;5.80;;;;;;;;;;4945548;28;20086;-47
2023/06/07 02:14:32;;;;;;;7.00;5.75;;;;;;;;;;4940714;28;20091;-51
2023/06/07 02:16:57;;;;;;;8.25;5.50;;;;;;;;;;4946279;28;20550;-51
2023/06/07 02:19:24;;;;;;;6.38;5.68;;;;;;;;;;4946540;28;20031;-52
2023/06/07 02:21:50;;;;;;;7.63;5.68;;;;;;;;;;4941798;28;20043;-46
2023/06/07 02:24:16;;;;;;;7.97;6.43;;;;;;;;;;4943753;28;20041;-52
2023/06/07 02:26:42;;;;;;;6.65;6.00;;;;;;;;;;4942245;28;20138;-49
2023/06/07 02:29:08;;;;;;;6.13;5.60;;;;;;;;;;4944599;28;20146;-47
2023/06/07 02:31:34;;;;;;;5.97;5.10;;;;;;;;;;4941027;28;20429;-50
2023/06/07 02:33:59;;;;;;;6.03;5.50;;;;;;;;;;4945204;28;20042;-50
2023/06/07 02:36:25;;;;;;;9.68;5.50;;;;;;;;;;4941808;28;20555;-51
2023/06/07 02:38:51;;;;;;;9.05;5.90;;;;;;;;;;4946074;28;20086;-52
2023/06/07 02:41:17;;;;;;;5.72;5.18;;;;;;;;;;4939898;28;20040;-49
2023/06/07 02:43:43;;;;;;;5.72;5.20;;;;;;;;;;4941461;28;20040;-46
2023/06/07 02:46:11;;;;;;;8.02;5.35;;;;;;;;;;4943332;28;20031;-47
2023/06/07 02:48:37;;;;;;;6.18;5.20;;;;;;;;;;4944919;28;20035;-47
2023/06/07 02:51:02;;;;;;;5.90;5.50;;;;;;;;;;4946308;28;20043;-46
2023/06/07 02:53:27;;;;;;;7.03;5.57;;;;;;;;;;4942717;28;20054;-47
2023/06/07 02:55:53;;;;;;;9.13;7.05;;;;;;;;;;4944407;28;20063;-47
2023/06/07 02:58:18;;;;;;;5.80;5.30;;;;;;;;;;4943094;28;20043;-51
2023/06/07 03:00:46;;;;;;;6.28;5.57;;;;;;;;;;4948021;28;20058;-46
2023/06/07 03:03:12;;;;;;;6.22;5.63;;;;;;;;;;4945823;28;20103;-48
2023/06/07 03:05:40;;;;;;;7.22;5.32;;;;;;;;;;4947187;28;20748;-48
2023/06/07 03:08:10;;;;;;;6.25;5.68;;;;;;;;;;4945004;28;20424;-46
2023/06/07 03:10:35;;;;;;;6.32;5.60;;;;;;;;;;4946181;28;20031;-47
2023/06/07 03:13:00;;;;;;;6.00;5.50;;;;;;;;;;4946404;28;20125;-49
2023/06/07 03:15:27;;;;;;;8.82;5.65;;;;;;;;;;4948176;28;20030;-52
2023/06/07 03:17:53;;;;;;;8.73;5.43;;;;;;;;;;4949961;28;20484;-53
2023/06/07 03:20:20;;;;;;;6.55;5.50;;;;;;;;;;4947334;28;20126;-53
2023/06/07 03:22:46;;;;;;;7.15;6.22;;;;;;;;;;4946320;28;20488;-52
2023/06/07 03:25:11;;;;;;;10.68;5.65;;;;;;;;;;4943601;28;20090;-47
2023/06/07 03:27:36;;;;;;;9.32;5.78;;;;;;;;;;4941745;28;20544;-46
2023/06/07 03:30:03;;;;;;;7.78;5.95;;;;;;;;;;4948042;28;20063;-51
2023/06/07 03:32:28;;;;;;;7.03;5.30;;;;;;;;;;4943648;28;20101;-49
2023/06/07 03:34:54;;;;;;;7.82;5.82;;;;;;;;;;4948446;28;20106;-46
2023/06/07 03:37:19;;;;;;;6.97;6.25;;;;;;;;;;4949483;28;20035;-46
2023/06/07 03:39:45;;;;;;;8.23;6.13;;;;;;;;;;4947210;28;20020;-46
2023/06/07 03:42:10;;;;;;;9.68;6.40;;;;;;;;;;4948429;28;20047;-49
2023/06/07 03:44:35;;;;;;;7.50;5.97;;;;;;;;;;4948381;28;20029;-50
2023/06/07 03:47:01;;;;;;;10.15;6.03;;;;;;;;;;4941902;28;20087;-47
2023/06/07 03:49:26;;;;;;;8.23;6.55;;;;;;;;;;4945707;28;20512;-53
2023/06/07 03:51:51;;;;;;;8.93;6.05;;;;;;;;;;4946977;28;20043;-49
2023/06/07 03:54:17;;;;;;;8.30;6.22;;;;;;;;;;4948049;28;20035;-53
2023/06/07 03:56:42;;;;;;;7.18;6.10;;;;;;;;;;4945465;28;20079;-50
2023/06/07 03:59:08;;;;;;;11.75;6.30;;;;;;;;;;4948318;28;20044;-51
2023/06/07 04:01:34;;;;;;;8.13;6.00;;;;;;;;;;4948885;28;20035;-52
2023/06/07 04:03:59;;;;;;;8.32;6.75;;;;;;;;;;4946785;28;20035;-47
2023/06/07 04:06:25;;;;;;;7.80;6.80;;;;;;;;;;4943346;28;20050;-50
2023/06/07 04:08:56;;;;;;;7.55;6.68;;;;;;;;;;4948858;28;20054;-49
2023/06/07 04:11:22;;;;;;;7.20;6.40;;;;;;;;;;4947489;28;20183;-46
2023/06/07 04:13:48;;;;;;;9.65;7.75;;;;;;;;;;4945554;28;20172;-46
2023/06/07 04:16:13;;;;;;;10.50;7.45;;;;;;;;;;4945508;28;20047;-48
2023/06/07 04:18:38;;;;;;;7.70;7.00;;;;;;;;;;4944936;28;20090;-47
2023/06/07 04:21:05;;;;;;;8.77;7.80;;;;;;;;;;4947675;28;20046;-50
2023/06/07 04:23:31;;;;;;;9.65;8.00;;;;;;;;;;4946134;28;20031;-50
2023/06/07 04:25:56;;;;;;;9.00;8.10;;;;;;;;;;4943546;28;20039;-48
2023/06/07 04:28:23;;;;;;;8.50;7.70;;;;;;;;;;4937997;28;20035;-46
2023/06/07 04:30:52;;;;;;;8.98;7.50;;;;;;;;;;4946276;28;20033;-49
2023/06/07 04:33:19;;;;;;;9.93;7.88;;;;;;;;;;4945703;28;20042;-48
2023/06/07 04:35:46;;;;;;;11.20;7.68;;;;;;;;;;4947433;28;20035;-49
2023/06/07 04:38:15;;;;;;;12.55;8.27;;;;;;;;;;4948685;28;20043;-49
2023/06/07 04:40:42;;;;;;;12.63;7.63;;;;;;;;;;4944733;28;20030;-52
2023/06/07 04:43:08;;;;;;;10.77;8.05;;;;;;;;;;4945543;28;20039;-51
2023/06/07 04:45:36;;;;;;;11.77;7.60;;;;;;;;;;4947407;28;20503;-51
2023/06/07 04:48:04;;;;;;;9.23;7.57;;;;;;;;;;4943897;28;20174;-47
2023/06/07 04:50:30;;;;;;;10.32;7.75;;;;;;;;;;4943062;28;20150;-48
2023/06/07 04:53:02;;;;;;;13.75;9.02;;;;;;;;;;4943693;28;20126;-48
2023/06/07 04:55:31;;;;;;;15.13;8.27;;;;;;;;;;4947864;28;20038;-49
2023/06/07 04:58:04;;;;;;;10.38;7.78;;;;;;;;;;4941838;28;20070;-48
2023/06/07 05:00:33;;;;;;;10.25;8.30;;;;;;;;;;4940747;28;20040;-47
2023/06/07 05:03:06;;;;;;;11.98;8.52;;;;;;;;;;4940159;28;20059;-46
2023/06/07 05:05:35;;;;;;;8.93;8.07;;;;;;;;;;4943085;28;20175;-46
2023/06/07 05:08:01;;;;;;;9.55;8.40;;;;;;;;;;4943474;28;20058;-45
2023/06/07 05:10:27;;;;;;;10.50;8.27;;;;;;;;;;4947798;28;20121;-47
2023/06/07 05:12:52;;;;;;;9.23;7.90;;;;;;;;;;4948485;28;21149;-50
2023/06/07 05:15:18;;;;;;;13.50;9.32;;;;;;;;;;4947011;28;20062;-48
2023/06/07 05:17:45;;;;;;;15.45;8.60;;;;;;;;;;4943145;28;20086;-50
2023/06/07 05:20:11;;;;;;;11.60;8.40;;;;;;;;;;4940080;28;20143;-51
2023/06/07 05:22:39;;;;;;;9.20;8.10;;;;;;;;;;4939482;28;20585;-45
2023/06/07 05:25:06;;;;;;;14.23;9.07;;;;;;;;;;4942178;28;20404;-50
2023/06/07 05:27:32;;;;;;;14.15;8.48;;;;;;;;;;4947553;28;20051;-54
2023/06/07 05:29:57;;;;;;;13.25;8.05;;;;;;;;;;4939540;28;20035;-52
2023/06/07 05:32:22;;;;;;;11.18;8.05;;;;;;;;;;4943792;28;20039;-54
2023/06/07 05:34:48;;;;;;;12.13;8.73;;;;;;;;;;4941476;28;20035;-53
2023/06/07 05:37:14;;;;;;;10.73;8.55;;;;;;;;;;4935632;28;20070;-48
2023/06/07 05:39:41;;;;;;;17.20;8.25;;;;;;;;;;4942339;28;20059;-47
2023/06/07 05:42:07;;;;;;;10.68;7.53;;;;;;;;;;4944245;28;20032;-51
2023/06/07 05:44:32;;;;;;;12.50;7.70;;;;;;;;;;4947055;28;20043;-50
2023/06/07 05:46:57;;;;;;;13.50;7.47;;;;;;;;;;4941893;28;20044;-49
2023/06/07 05:49:23;;;;;;;12.75;7.68;;;;;;;;;;4941430;28;20030;-48
2023/06/07 05:51:49;;;;;;;10.02;7.70;;;;;;;;;;4944180;28;20077;-50
2023/06/07 05:54:14;;;;;;;9.35;7.55;;;;;;;;;;4946653;28;20031;-51
2023/06/07 05:56:40;;;;;;;11.07;7.80;;;;;;;;;;4943651;28;20044;-47
2023/06/07 05:59:06;;;;;;;10.20;8.48;;;;;;;;;;4942609;28;20094;-51
2023/06/07 06:01:34;;;;;;;8.65;7.78;;;;;;;;;;4944599;28;20408;-52
2023/06/07 06:04:01;;;;;;;8.98;7.35;;;;;;;;;;4944672;28;20032;-55
2023/06/07 06:06:26;;;;;;;12.18;8.30;;;;;;;;;;4942394;28;20039;-52
2023/06/07 06:08:52;;;;;;;13.70;8.07;;;;;;;;;;4940175;28;20038;-49
2023/06/07 06:11:17;;;;;;;11.07;7.20;;;;;;;;;;4946608;28;20442;-53
2023/06/07 06:13:43;;;;;;;12.25;8.13;;;;;;;;;;4942890;28;20031;-52
2023/06/07 06:16:08;;;;;;;8.88;7.85;;;;;;;;;;4943129;28;20035;-51
2023/06/07 06:18:34;;;;;;;9.43;8.43;;;;;;;;;;4942016;28;20173;-48
2023/06/07 06:20:59;;;;;;;11.38;8.32;;;;;;;;;;4939520;28;20489;-49
2023/06/07 06:23:25;;;;;;;9.48;8.23;;;;;;;;;;4937823;28;20035;-48
2023/06/07 06:25:50;;;;;;;10.02;8.23;;;;;;;;;;4941472;28;20027;-50
2023/06/07 06:28:16;;;;;;;9.27;8.07;;;;;;;;;;4943491;28;20039;-49
2023/06/07 06:30:43;;;;;;;8.90;8.00;;;;;;;;;;4941633;28;20051;-47
2023/06/07 06:33:08;;;;;;;9.45;6.97;;;;;;;;;;4942895;28;20043;-51
2023/06/07 06:35:33;;;;;;;12.23;7.57;;;;;;;;;;4935876;28;20496;-52
2023/06/07 06:37:59;;;;;;;7.43;6.60;;;;;;;;;;4938835;28;20050;-52
2023/06/07 06:40:26;;;;;;;7.97;6.82;;;;;;;;;;4941515;28;20026;-51
2023/06/07 06:42:52;;;;;;;9.07;7.03;;;;;;;;;;4938852;28;20050;-51
2023/06/07 06:45:17;;;;;;;7.93;5.80;;;;;;;;;;4939520;28;20040;-53
2023/06/07 06:47:42;;;;;;;7.22;5.85;;;;;;;;;;4942935;28;20142;-54
2023/06/07 06:50:10;;;;;;;6.68;6.07;;;;;;;;;;4943091;28;20488;-54
2023/06/07 06:52:35;;;;;;;8.15;6.13;;;;;;;;;;4943227;28;20042;-54
2023/06/07 06:55:01;;;;;;;9.82;5.65;;;;;;;;;;4939248;28;20027;-52
2023/06/07 06:57:26;;;;;;;5.90;5.25;;;;;;;;;;4939563;28;20496;-49
2023/06/07 06:59:52;;;;;;;8.73;5.30;;;;;;;;;;4941464;28;20041;-50
2023/06/07 07:02:17;;;;;;;7.03;5.13;;;;;;;;;;4943018;28;20039;-53
2023/06/07 07:04:43;;;;;;;8.68;3.95;;;;;;;;;;4940231;28;20034;-50
2023/06/07 07:07:09;;;;;;;7.75;4.60;;;;;;;;;;4944618;28;20044;-48
2023/06/07 07:09:35;;;;;;;5.50;4.10;;;;;;;;;;4945162;28;20039;-47
2023/06/07 07:12:00;;;;;;;5.85;4.40;;;;;;;;;;4939320;28;20050;-50
2023/06/07 07:14:25;;;;;;;5.28;3.72;;;;;;;;;;4938375;28;20420;-51
2023/06/07 07:16:52;;;;;;;4.57;3.25;;;;;;;;;;4944601;28;20538;-53
2023/06/07 07:19:18;;;;;;;8.70;3.60;;;;;;;;;;4945527;28;20047;-52
2023/06/07 07:21:43;;;;;;;6.55;3.50;;;;;;;;;;4940352;28;20035;-47
2023/06/07 07:24:09;;;;;;;3.70;2.85;;;;;;;;;;4944307;28;20110;-51
2023/06/07 07:26:35;;;;;;;5.70;3.20;;;;;;;;;;4944049;28;20040;-52
2023/06/07 07:29:02;;;;;;;4.72;2.92;;;;;;;;;;4938422;28;20111;-54
2023/06/07 07:31:30;;;;;;;3.97;2.50;;;;;;;;;;4940588;28;20120;-54
2023/06/07 07:33:56;;;;;;;3.95;2.75;;;;;;;;;;4942733;28;20039;-54
2023/06/07 07:36:23;;;;;;;6.85;3.40;;;;;;;;;;4942844;28;20043;-50
2023/06/07 07:38:49;;;;;;;3.22;2.92;;;;;;;;;;4942661;28;20164;-51
2023/06/07 07:41:14;;;;;;;2.80;2.60;;;;;;;;;;4942694;28;20126;-52
2023/06/07 07:43:40;;;;;;;4.88;2.78;;;;;;;;;;4945382;28;20030;-49
2023/06/07 07:46:06;;;;;;;4.20;3.17;;;;;;;;;;4947451;28;20031;-52
2023/06/07 07:48:31;;;;;;;5.78;3.05;;;;;;;;;;4945483;28;20043;-49
2023/06/07 07:50:56;;;;;;;7.28;3.42;;;;;;;;;;4945081;28;20050;-52
2023/06/07 07:53:22;;;;;;;9.23;2.80;;;;;;;;;;4948213;28;20040;-48
2023/06/07 07:55:47;;;;;;;9.43;3.50;;;;;;;;;;4947381;28;20042;-51
2023/06/07 07:58:13;;;;;;;4.15;3.00;;;;;;;;;;4944281;28;20509;-52
2023/06/07 08:00:40;;;;;;;4.07;3.28;;;;;;;;;;4944626;28;20082;-54
2023/06/07 08:03:05;;;;;;;8.30;2.72;;;;;;;;;;4943278;28;21560;-53
2023/06/07 08:05:31;;;;;;;3.70;3.20;;;;;;;;;;4946689;28;20046;-49
2023/06/07 08:07:57;;;;;;;5.15;2.90;;;;;;;;;;4941880;28;20040;-47
2023/06/07 08:10:22;;;;;;;5.90;3.35;;;;;;;;;;4947732;28;21263;-54
2023/06/07 08:12:47;;;;;;;5.22;3.20;;;;;;;;;;4947753;28;20114;-48
2023/06/07 08:15:13;;;;;;;5.88;3.20;;;;;;;;;;4944511;28;20535;-51
2023/06/07 08:17:39;;;;;;;7.43;3.50;;;;;;;;;;4944093;28;20039;-52
2023/06/07 08:20:08;;;;;;;5.43;2.85;;;;;;;;;;4941123;28;20110;-53
2023/06/07 08:22:33;;;;;;;4.75;3.25;;;;;;;;;;4946070;28;20058;-48
2023/06/07 08:24:58;;;;;;;4.85;3.17;;;;;;;;;;4947486;28;20511;-53
2023/06/07 08:27:24;;;;;;;4.95;3.50;;;;;;;;;;4944632;28;20523;-50
2023/06/07 08:29:49;;;;;;;6.80;3.67;;;;;;;;;;4945963;28;20036;-52
2023/06/07 08:32:15;;;;;;;4.38;3.15;;;;;;;;;;4944290;28;20047;-49
2023/06/07 08:34:41;;;;;;;4.00;3.10;;;;;;;;;;4946790;28;20499;-48
2023/06/07 08:37:07;;;;;;;3.30;3.00;;;;;;;;;;4940606;28;20456;-50
2023/06/07 08:39:33;;;;;;;5.53;3.15;;;;;;;;;;4945766;28;20074;-55
2023/06/07 08:41:58;;;;;;;3.53;3.22;;;;;;;;;;4926951;29;20043;-50
2023/06/07 08:44:23;;;;;;;3.38;3.08;;;;;;;;;;4946878;28;20058;-49
2023/06/07 08:46:50;;;;;;;3.60;3.30;;;;;;;;;;4945954;28;20047;-54
2023/06/07 08:49:16;;;;;;;3.63;3.25;;;;;;;;;;4943102;28;20046;-53
2023/06/07 08:51:42;;;;;;;7.25;3.72;;;;;;;;;;4940703;28;21129;-53
2023/06/07 08:54:10;;;;;;;4.50;3.55;;;;;;;;;;4944057;28;20135;-45
2023/06/07 08:56:38;;;;;;;5.43;3.45;;;;;;;;;;4943327;28;20079;-52
2023/06/07 08:59:04;;;;;;;5.70;3.75;;;;;;;;;;4946936;28;20528;-52
2023/06/07 09:01:29;;;;;;;6.30;4.20;;;;;;;;;;4945550;28;20106;-51
2023/06/07 09:03:55;;;;;;;7.18;3.70;;;;;;;;;;4947381;28;20032;-49
2023/06/07 09:06:22;;;;;;;11.02;4.18;;;;;;;;;;4944387;28;20051;-54
2023/06/07 09:08:47;;;;;;;8.25;3.42;;;;;;;;;;4946053;28;20019;-53
2023/06/07 09:11:16;;;;;;;9.23;4.10;;;;;;;;;;4943176;28;20023;-53
2023/06/07 09:13:42;;;;;;;4.30;3.30;;;;;;;;;;4948176;28;20023;-50
2023/06/07 09:16:13;;;;;;;5.50;3.55;;;;;;;;;;4945464;28;20035;-47
2023/06/07 09:18:54;;;;;;;4.32;3.83;;;;;;;;;;4942149;28;20175;-51
2023/06/07 09:21:28;;;;;;;6.97;3.40;;;;;;;;;;4940107;28;20059;-52
2023/06/07 09:23:57;;;;;;;9.07;3.65;;;;;;;;;;4941555;28;20577;-54
2023/06/07 09:26:23;;;;;;;5.95;3.70;;;;;;;;;;4945554;28;20051;-50
2023/06/07 09:28:49;;;;;;;3.13;2.88;;;;;;;;;;4946843;28;20050;-55
2023/06/07 09:31:32;;;;;;;9.65;3.38;;;;;;;;;;4944105;28;20031;-54
2023/06/07 09:33:57;;;;;;;2.55;2.35;;;;;;;;;;4945908;28;20118;-50
2023/06/07 09:36:23;;;;;;;4.13;3.20;;;;;;;;;;4946606;28;20106;-54
2023/06/07 09:38:48;;;;;;;3.47;2.90;;;;;;;;;;4944459;28;20546;-49
2023/06/07 09:41:14;;;;;;;5.53;2.92;;;;;;;;;;4943854;28;20042;-55
2023/06/07 09:43:46;;;;;;;4.85;2.97;;;;;;;;;;4945708;28;20039;-53
2023/06/07 09:46:13;;;;;;;5.03;3.10;;;;;;;;;;4946222;28;20497;-50
2023/06/07 09:48:45;;;;;;;7.80;3.17;;;;;;;;;;4941601;28;20501;-50
2023/06/07 09:51:11;;;;;;;6.55;3.00;;;;;;;;;;4945264;28;20504;-51
2023/06/07 09:53:54;;;;;;;6.20;3.58;;;;;;;;;;4946350;28;20031;-49
2023/06/07 09:56:21;;;;;;;6.40;3.03;;;;;;;;;;4943208;28;20098;-52
2023/06/07 09:58:51;;;;;;;4.05;3.10;;;;;;;;;;4942935;28;20121;-53
2023/06/07 10:01:45;;;;;;;10.23;3.20;;;;;;;;;;4941442;28;20037;-54
2023/06/07 10:04:12;;;;;;;5.90;2.40;;;;;;;;;;4946078;28;20031;-48
2023/06/07 10:06:40;;;;;;;3.95;2.58;;;;;;;;;;4943576;28;20047;-53
2023/06/07 10:09:06;;;;;;;3.20;2.70;;;;;;;;;;4943989;28;20035;-52
2023/06/07 10:11:33;;;;;;;2.92;2.58;;;;;;;;;;4941995;28;20451;-48
2023/06/07 10:14:18;;;;;;;2.38;2.15;;;;;;;;;;4947612;28;20023;-48
2023/06/07 10:16:50;;;;;;;2.33;2.20;;;;;;;;;;4939507;28;20133;-52
2023/06/07 10:19:40;;;;;;;2.53;2.10;;;;;;;;;;4944801;28;20035;-53
2023/06/07 10:22:12;;;;;;;2.75;2.08;;;;;;;;;;4943851;28;20552;-51
2023/06/07 10:24:59;;;;;;;2.67;2.47;;;;;;;;;;4941272;28;20050;-49
2023/06/07 10:27:28;;;;;;;3.38;2.42;;;;;;;;;;4938949;28;20157;-49
2023/06/07 10:30:01;;;;;;;3.03;2.35;;;;;;;;;;4939557;28;20049;-53
2023/06/07 10:32:34;;;;;;;4.53;2.30;;;;;;;;;;4945547;28;20044;-53
2023/06/07 10:34:59;;;;;;;2.28;2.08;;;;;;;;;;4945913;28;20027;-49
2023/06/07 10:37:30;;;;;;;2.63;1.80;;;;;;;;;;4946570;28;20043;-51
2023/06/07 10:39:56;;;;;;;3.28;2.42;;;;;;;;;;4940395;28;20066;-51
2023/06/07 10:42:21;;;;;;;4.25;2.25;;;;;;;;;;4940481;28;20074;-49
2023/06/07 10:44:47;;;;;;;4.03;2.47;;;;;;;;;;4937624;28;20034;-50
2023/06/07 10:47:21;;;;;;;2.38;2.13;;;;;;;;;;4944837;28;20039;-52
2023/06/07 10:49:48;;;;;;;2.55;2.00;;;;;;;;;;4941755;28;20528;-53
2023/06/07 10:52:15;;;;;;;3.30;2.20;;;;;;;;;;4944522;28;20123;-51
2023/06/07 10:54:42;;;;;;;5.93;2.13;;;;;;;;;;4942020;28;20086;-51
2023/06/07 10:57:08;;;;;;;3.33;2.03;;;;;;;;;;4935746;28;20087;-48
2023/06/07 10:59:34;;;;;;;4.43;2.33;;;;;;;;;;4945146;28;20067;-50
2023/06/07 11:02:21;;;;;;;3.10;2.33;;;;;;;;;;4941165;28;20035;-52
2023/06/07 11:04:56;;;;;;;2.20;2.10;;;;;;;;;;4942438;28;20051;-52
2023/06/07 11:07:30;;;;;;;3.85;2.35;;;;;;;;;;4944596;28;20037;-49
2023/06/07 11:10:05;;;;;;;9.77;2.60;;;;;;;;;;4944528;28;20054;-49
2023/06/07 11:12:40;;;;;;;5.53;2.55;;;;;;;;;;4938983;28;20040;-49
2023/06/07 11:15:18;;;;;;;8.77;2.70;;;;;;;;;;4943490;28;20024;-51
2023/06/07 11:17:54;;;;;;;7.47;2.60;;;;;;;;;;4938736;28;20504;-50
2023/06/07 11:20:37;;;;;;;5.10;2.63;;;;;;;;;;4943353;28;20027;-55
2023/06/07 11:23:21;;;;;;;4.80;2.47;;;;;;;;;;4945400;28;20051;-54
2023/06/07 11:25:48;;;;;;;2.63;2.42;;;;;;;;;;4948228;28;20041;-50
2023/06/07 11:28:14;;;;;;;2.67;2.47;;;;;;;;;;4945353;28;20128;-49
2023/06/07 11:30:45;;;;;;;3.80;2.50;;;;;;;;;;4949034;28;20446;-52
2023/06/07 11:33:17;;;;;;;4.18;2.85;;;;;;;;;;4949088;28;20071;-53
2023/06/07 11:35:43;;;;;;;5.25;2.50;;;;;;;;;;4949029;28;20086;-55
2023/06/07 11:38:09;;;;;;;7.65;2.88;;;;;;;;;;4944910;28;20484;-55
2023/06/07 11:40:35;;;;;;;10.15;2.60;;;;;;;;;;4949522;28;20034;-52
2023/06/07 11:43:02;;;;;;;3.25;2.63;;;;;;;;;;4943147;28;20471;-53
2023/06/07 11:45:27;;;;;;;3.75;2.70;;;;;;;;;;4948064;28;20451;-49
2023/06/07 11:47:57;;;;;;;2.95;2.65;;;;;;;;;;4944572;28;20118;-48
2023/06/07 11:50:23;;;;;;;4.28;2.50;;;;;;;;;;4947960;28;20052;-50
2023/06/07 11:52:48;;;;;;;7.13;3.38;;;;;;;;;;4944882;28;20043;-51
2023/06/07 11:55:16;;;;;;;5.25;2.90;;;;;;;;;;4944817;28;20040;-49
2023/06/07 11:57:43;;;;;;;4.63;3.30;;;;;;;;;;4943802;28;20047;-50
2023/06/07 12:00:17;;;;;;;5.80;2.78;;;;;;;;;;4943374;28;20063;-51
2023/06/07 12:02:43;;;;;;;3.35;2.63;;;;;;;;;;4943553;28;20058;-48
2023/06/07 12:05:09;;;;;;;2.50;2.30;;;;;;;;;;4944193;28;20023;-50
2023/06/07 12:07:35;;;;;;;5.15;2.80;;;;;;;;;;4939469;28;20127;-54
2023/06/07 12:10:02;;;;;;;3.10;2.83;;;;;;;;;;4942976;28;20023;-54
2023/06/07 12:12:27;;;;;;;2.97;2.65;;;;;;;;;;4944099;28;20067;-48
2023/06/07 12:15:00;;;;;;;2.70;2.50;;;;;;;;;;4946954;28;20827;-54
2023/06/07 12:17:34;;;;;;;3.67;2.65;;;;;;;;;;4943958;28;20052;-53
2023/06/07 12:20:14;;;;;;;2.90;2.40;;;;;;;;;;4945957;28;20035;-54
2023/06/07 12:22:40;;;;;;;3.70;2.08;;;;;;;;;;4945282;28;20035;-54
2023/06/07 12:25:08;;;;;;;2.50;2.30;;;;;;;;;;4941846;28;20031;-54
2023/06/07 12:27:34;;;;;;;4.95;2.22;;;;;;;;;;4941225;28;20027;-52
2023/06/07 12:29:59;;;;;;;4.80;2.45;;;;;;;;;;4946653;28;20031;-52
2023/06/07 12:32:25;;;;;;;8.70;2.58;;;;;;;;;;4946336;28;20036;-51
2023/06/07 12:34:50;;;;;;;2.80;2.10;;;;;;;;;;4942598;28;20473;-52
2023/06/07 12:37:17;;;;;;;2.50;2.30;;;;;;;;;;4945713;28;20139;-54
2023/06/07 12:39:42;;;;;;;2.92;2.20;;;;;;;;;;4945207;28;20202;-50
2023/06/07 12:42:08;;;;;;;2.72;2.30;;;;;;;;;;4946762;28;20188;-50
2023/06/07 12:44:33;;;;;;;4.15;2.10;;;;;;;;;;4944833;28;20035;-49
2023/06/07 12:46:59;;;;;;;3.28;2.40;;;;;;;;;;4944703;28;20509;-48
2023/06/07 12:49:24;;;;;;;4.70;2.08;;;;;;;;;;4946565;28;20063;-52
2023/06/07 12:51:50;;;;;;;2.45;2.20;;;;;;;;;;4944585;28;20178;-54
2023/06/07 12:54:15;;;;;;;2.83;2.38;;;;;;;;;;4943978;28;20031;-54
2023/06/07 12:56:41;;;;;;;2.53;2.20;;;;;;;;;;4944258;28;20044;-53
2023/06/07 12:59:07;;;;;;;3.13;2.33;;;;;;;;;;4945224;28;20035;-48
2023/06/07 13:01:32;;;;;;;3.58;2.13;;;;;;;;;;4943572;28;20059;-53
2023/06/07 13:03:58;;;;;;;4.03;2.45;;;;;;;;;;4940810;28;20042;-54
2023/06/07 13:06:25;;;;;;;2.75;2.40;;;;;;;;;;4946927;28;20042;-52
2023/06/07 13:09:01;;;;;;;2.65;2.05;;;;;;;;;;4947135;28;20043;-52
2023/06/07 13:11:27;;;;;;;3.13;2.63;;;;;;;;;;4938292;28;20051;-55
2023/06/07 13:13:52;;;;;;;3.65;2.13;;;;;;;;;;4946560;28;20472;-51
2023/06/07 13:16:18;;;;;;;3.38;2.35;;;;;;;;;;4942571;28;20047;-49
2023/06/07 13:18:43;;;;;;;3.20;2.10;;;;;;;;;;4944566;28;20023;-50
2023/06/07 13:21:09;;;;;;;3.65;2.65;;;;;;;;;;4942479;28;20078;-48
2023/06/07 13:23:35;;;;;;;2.50;2.00;;;;;;;;;;4947361;28;20043;-50
2023/06/07 13:26:01;;;;;;;2.72;2.10;;;;;;;;;;4939072;28;20030;-53
2023/06/07 13:28:27;;;;;;;4.28;2.47;;;;;;;;;;4945927;28;20082;-53
2023/06/07 13:30:52;;;;;;;2.58;2.30;;;;;;;;;;4948928;28;20031;-48
2023/06/07 13:33:18;;;;;;;5.05;2.30;;;;;;;;;;4943508;28;20043;-51
2023/06/07 13:35:43;;;;;;;2.22;2.03;;;;;;;;;;4944950;28;20035;-50
2023/06/07 13:38:08;;;;;;;4.28;2.13;;;;;;;;;;4947287;28;20448;-50
2023/06/07 13:40:34;;;;;;;2.38;2.17;;;;;;;;;;4943062;28;20024;-51
2023/06/07 13:42:59;;;;;;;2.70;2.50;;;;;;;;;;4946340;28;20522;-54
2023/06/07 13:45:25;;;;;;;3.72;2.22;;;;;;;;;;4943014;28;20035;-52
2023/06/07 13:47:51;;;;;;;3.08;2.47;;;;;;;;;;4943208;28;20062;-48
2023/06/07 13:50:16;;;;;;;1.98;1.88;;;;;;;;;;4945361;28;20400;-49
2023/06/07 13:52:42;;;;;;;2.75;2.25;;;;;;;;;;4944879;28;20563;-51
2023/06/07 13:55:08;;;;;;;2.92;1.92;;;;;;;;;;4941480;28;20046;-48
2023/06/07 13:57:35;;;;;;;3.08;2.17;;;;;;;;;;4942834;28;20057;-52
2023/06/07 14:00:01;;;;;;;4.53;2.25;;;;;;;;;;4943532;28;21860;-49
2023/06/07 14:02:26;;;;;;;3.83;2.28;;;;;;;;;;4943337;28;20036;-49
2023/06/07 14:04:51;;;;;;;2.10;1.90;;;;;;;;;;4944456;28;20035;-53
2023/06/07 14:07:17;;;;;;;3.20;2.10;;;;;;;;;;4944781;28;20388;-48
2023/06/07 14:09:42;;;;;;;5.30;2.25;;;;;;;;;;4945768;28;20492;-48
2023/06/07 14:12:10;;;;;;;3.97;2.10;;;;;;;;;;4942413;28;20042;-52
2023/06/07 14:14:35;;;;;;;5.07;2.20;;;;;;;;;;4941039;28;20035;-52
2023/06/07 14:17:00;;;;;;;2.47;2.00;;;;;;;;;;4945747;28;20052;-52
2023/06/07 14:19:26;;;;;;;2.55;2.20;;;;;;;;;;4943893;28;20028;-53
2023/06/07 14:21:51;;;;;;;4.93;2.30;;;;;;;;;;4940184;28;20044;-54
2023/06/07 14:24:16;;;;;;;8.57;2.10;;;;;;;;;;4941245;28;20745;-48
2023/06/07 14:26:42;;;;;;;4.22;2.30;;;;;;;;;;4944915;28;20075;-53
2023/06/07 14:29:07;;;;;;;1.95;1.83;;;;;;;;;;4941893;28;20050;-47
2023/06/07 14:31:32;;;;;;;4.20;2.38;;;;;;;;;;4944639;28;20073;-47
2023/06/07 14:33:58;;;;;;;2.53;2.33;;;;;;;;;;4938016;28;20035;-50
2023/06/07 14:36:23;;;;;;;7.20;2.53;;;;;;;;;;4942405;28;20102;-50
2023/06/07 14:38:49;;;;;;;4.82;2.25;;;;;;;;;;4946391;28;20039;-48
2023/06/07 14:41:14;;;;;;;2.88;2.30;;;;;;;;;;4938854;28;20685;-51